sensor_id;sensor_type;location;lat;lon;timestamp;P1;durP1;ratioP1;P2;durP2;ratioP2
7142;SDS011;3613;48.902;9.204;2023-08-24T00:01:46;12.17;;;10.80;;
7142;SDS011;3613;48.902;9.204;2023-08-24T00:04:12;15.27;;;11.00;;
7142;SDS011;3613;48.902;9.204;2023-08-24T00:06:40;16.47;;;11.50;;
7142;SDS011;3613;48.902;9.204;2023-08-24T00:09:08;13.67;;;10.70;;
7142;SDS011;3613;48.902;9.204;2023-08-24T00:11:36;12.97;;;11.63;;
7142;SDS011;3613;48.902;9.204;2023-08-24T00:14:04;14.10;;;11.33;;
7142;SDS011;3613;48.902;9.204;2023-08-24T00:16:32;14.53;;;11.50;;
7142;SDS011;3613;48.902;9.204;2023-08-24T00:19:00;12.23;;;11.00;;
7142;SDS011;3613;48.902;9.204;2023-08-24T00:21:26;13.70;;;11.90;;
7142;SDS011;3613;48.902;9.204;2023-08-24T00:23:51;14.23;;;11.67;;
7142;SDS011;3613;48.902;9.204;2023-08-24T00:26:20;12.47;;;11.17;;
7142;SDS011;3613;48.902;9.204;2023-08-24T00:28:46;13.00;;;11.03;;
7142;SDS011;3613;48.902;9.204;2023-08-24T00:31:12;14.33;;;11.40;;
7142;SDS011;3613;48.902;9.204;2023-08-24T00:33:42;13.93;;;11.83;;
7142;SDS011;3613;48.902;9.204;2023-08-24T00:36:08;12.57;;;11.13;;
7142;SDS011;3613;48.902;9.204;2023-08-24T00:38:33;14.47;;;11.40;;
7142;SDS011;3613;48.902;9.204;2023-08-24T00:40:59;14.13;;;10.97;;
7142;SDS011;3613;48.902;9.204;2023-08-24T00:43:25;11.73;;;10.53;;
7142;SDS011;3613;48.902;9.204;2023-08-24T00:45:52;12.17;;;10.87;;
7142;SDS011;3613;48.902;9.204;2023-08-24T00:48:20;13.97;;;11.43;;
7142;SDS011;3613;48.902;9.204;2023-08-24T00:50:51;16.80;;;11.33;;
7142;SDS011;3613;48.902;9.204;2023-08-24T00:53:29;14.33;;;11.60;;
7142;SDS011;3613;48.902;9.204;2023-08-24T00:55:58;13.37;;;11.97;;
7142;SDS011;3613;48.902;9.204;2023-08-24T00:58:24;16.10;;;11.87;;
7142;SDS011;3613;48.902;9.204;2023-08-24T01:00:52;11.87;;;10.63;;
7142;SDS011;3613;48.902;9.204;2023-08-24T01:03:18;12.33;;;11.10;;
7142;SDS011;3613;48.902;9.204;2023-08-24T01:05:49;11.63;;;10.43;;
7142;SDS011;3613;48.902;9.204;2023-08-24T01:08:17;12.47;;;11.20;;
7142;SDS011;3613;48.902;9.204;2023-08-24T01:10:45;13.00;;;11.00;;
7142;SDS011;3613;48.902;9.204;2023-08-24T01:13:27;11.57;;;10.57;;
7142;SDS011;3613;48.902;9.204;2023-08-24T01:18:57;11.63;;;10.43;;
7142;SDS011;3613;48.902;9.204;2023-08-24T01:21:27;12.50;;;11.20;;
7142;SDS011;3613;48.902;9.204;2023-08-24T01:26:46;16.33;;;12.50;;
7142;SDS011;3613;48.902;9.204;2023-08-24T01:29:14;13.47;;;12.07;;
7142;SDS011;3613;48.902;9.204;2023-08-24T01:31:40;13.33;;;11.93;;
7142;SDS011;3613;48.902;9.204;2023-08-24T01:34:06;15.53;;;12.20;;
7142;SDS011;3613;48.902;9.204;2023-08-24T01:36:34;13.50;;;12.10;;
7142;SDS011;3613;48.902;9.204;2023-08-24T01:39:02;13.77;;;12.30;;
7142;SDS011;3613;48.902;9.204;2023-08-24T01:41:46;13.77;;;12.07;;
7142;SDS011;3613;48.902;9.204;2023-08-24T01:44:16;16.70;;;12.00;;
7142;SDS011;3613;48.902;9.204;2023-08-24T01:46:45;16.20;;;12.87;;
7142;SDS011;3613;48.902;9.204;2023-08-24T01:49:12;14.10;;;12.70;;
7142;SDS011;3613;48.902;9.204;2023-08-24T01:51:39;15.37;;;12.27;;
7142;SDS011;3613;48.902;9.204;2023-08-24T01:54:07;13.30;;;12.00;;
7142;SDS011;3613;48.902;9.204;2023-08-24T01:56:37;14.53;;;13.03;;
7142;SDS011;3613;48.902;9.204;2023-08-24T01:59:02;14.70;;;13.20;;
7142;SDS011;3613;48.902;9.204;2023-08-24T02:01:28;13.93;;;12.40;;
7142;SDS011;3613;48.902;9.204;2023-08-24T02:03:54;15.53;;;13.13;;
7142;SDS011;3613;48.902;9.204;2023-08-24T02:06:20;15.70;;;13.03;;
7142;SDS011;3613;48.902;9.204;2023-08-24T02:08:46;14.87;;;13.17;;
7142;SDS011;3613;48.902;9.204;2023-08-24T02:11:12;16.87;;;13.03;;
7142;SDS011;3613;48.902;9.204;2023-08-24T02:13:40;15.43;;;13.67;;
7142;SDS011;3613;48.902;9.204;2023-08-24T02:16:07;15.10;;;13.50;;
7142;SDS011;3613;48.902;9.204;2023-08-24T02:18:37;15.90;;;13.43;;
7142;SDS011;3613;48.902;9.204;2023-08-24T02:21:08;14.67;;;13.13;;
7142;SDS011;3613;48.902;9.204;2023-08-24T02:23:41;14.97;;;13.47;;
7142;SDS011;3613;48.902;9.204;2023-08-24T02:26:06;15.73;;;13.67;;
7142;SDS011;3613;48.902;9.204;2023-08-24T02:28:33;15.37;;;13.87;;
7142;SDS011;3613;48.902;9.204;2023-08-24T02:31:02;15.77;;;13.00;;
7142;SDS011;3613;48.902;9.204;2023-08-24T02:33:28;15.30;;;13.80;;
7142;SDS011;3613;48.902;9.204;2023-08-24T02:35:56;14.17;;;12.67;;
7142;SDS011;3613;48.902;9.204;2023-08-24T02:38:23;15.13;;;13.57;;
7142;SDS011;3613;48.902;9.204;2023-08-24T02:41:03;15.03;;;13.50;;
7142;SDS011;3613;48.902;9.204;2023-08-24T02:43:29;16.17;;;13.30;;
7142;SDS011;3613;48.902;9.204;2023-08-24T02:45:59;14.77;;;13.07;;
7142;SDS011;3613;48.902;9.204;2023-08-24T02:48:26;14.20;;;12.23;;
7142;SDS011;3613;48.902;9.204;2023-08-24T02:50:55;15.20;;;12.27;;
7142;SDS011;3613;48.902;9.204;2023-08-24T02:53:28;14.97;;;12.80;;
7142;SDS011;3613;48.902;9.204;2023-08-24T02:55:54;15.17;;;12.43;;
7142;SDS011;3613;48.902;9.204;2023-08-24T02:58:20;14.73;;;13.20;;
7142;SDS011;3613;48.902;9.204;2023-08-24T03:00:48;13.83;;;12.40;;
7142;SDS011;3613;48.902;9.204;2023-08-24T03:03:16;12.90;;;11.60;;
7142;SDS011;3613;48.902;9.204;2023-08-24T03:05:58;13.67;;;12.30;;
7142;SDS011;3613;48.902;9.204;2023-08-24T03:08:25;13.77;;;12.13;;
7142;SDS011;3613;48.902;9.204;2023-08-24T03:10:51;16.13;;;12.37;;
7142;SDS011;3613;48.902;9.204;2023-08-24T03:13:16;12.77;;;11.47;;
7142;SDS011;3613;48.902;9.204;2023-08-24T03:15:47;12.80;;;11.50;;
7142;SDS011;3613;48.902;9.204;2023-08-24T03:18:15;14.17;;;11.77;;
7142;SDS011;3613;48.902;9.204;2023-08-24T03:20:46;16.47;;;12.43;;
7142;SDS011;3613;48.902;9.204;2023-08-24T03:23:12;13.33;;;11.93;;
7142;SDS011;3613;48.902;9.204;2023-08-24T03:25:39;15.13;;;12.10;;
7142;SDS011;3613;48.902;9.204;2023-08-24T03:28:06;12.73;;;11.47;;
7142;SDS011;3613;48.902;9.204;2023-08-24T03:30:37;14.80;;;12.33;;
7142;SDS011;3613;48.902;9.204;2023-08-24T03:33:05;12.43;;;11.23;;
7142;SDS011;3613;48.902;9.204;2023-08-24T03:35:33;14.87;;;12.63;;
7142;SDS011;3613;48.902;9.204;2023-08-24T03:37:59;15.43;;;12.27;;
7142;SDS011;3613;48.902;9.204;2023-08-24T03:40:25;14.43;;;12.23;;
7142;SDS011;3613;48.902;9.204;2023-08-24T03:42:51;13.97;;;12.37;;
7142;SDS011;3613;48.902;9.204;2023-08-24T03:45:21;15.00;;;13.50;;
7142;SDS011;3613;48.902;9.204;2023-08-24T03:47:50;14.57;;;13.13;;
7142;SDS011;3613;48.902;9.204;2023-08-24T03:50:16;14.87;;;12.23;;
7142;SDS011;3613;48.902;9.204;2023-08-24T03:52:41;14.97;;;13.37;;
7142;SDS011;3613;48.902;9.204;2023-08-24T03:55:08;15.30;;;13.57;;
7142;SDS011;3613;48.902;9.204;2023-08-24T03:57:33;15.80;;;13.90;;
7142;SDS011;3613;48.902;9.204;2023-08-24T03:59:59;15.00;;;13.60;;
7142;SDS011;3613;48.902;9.204;2023-08-24T04:02:25;14.97;;;13.37;;
7142;SDS011;3613;48.902;9.204;2023-08-24T04:04:54;14.43;;;12.93;;
7142;SDS011;3613;48.902;9.204;2023-08-24T04:07:19;14.37;;;12.90;;
7142;SDS011;3613;48.902;9.204;2023-08-24T04:09:45;14.13;;;12.57;;
7142;SDS011;3613;48.902;9.204;2023-08-24T04:12:12;14.87;;;12.77;;
7142;SDS011;3613;48.902;9.204;2023-08-24T04:14:38;13.33;;;11.77;;
7142;SDS011;3613;48.902;9.204;2023-08-24T04:17:06;15.57;;;12.70;;
7142;SDS011;3613;48.902;9.204;2023-08-24T04:19:32;13.20;;;11.90;;
7142;SDS011;3613;48.902;9.204;2023-08-24T04:21:58;13.60;;;11.90;;
7142;SDS011;3613;48.902;9.204;2023-08-24T04:24:26;15.50;;;11.03;;
7142;SDS011;3613;48.902;9.204;2023-08-24T04:26:54;15.10;;;11.17;;
7142;SDS011;3613;48.902;9.204;2023-08-24T04:29:20;13.83;;;12.53;;
7142;SDS011;3613;48.902;9.204;2023-08-24T04:31:45;12.03;;;10.83;;
7142;SDS011;3613;48.902;9.204;2023-08-24T04:34:13;12.07;;;11.00;;
7142;SDS011;3613;48.902;9.204;2023-08-24T04:36:39;13.60;;;11.47;;
7142;SDS011;3613;48.902;9.204;2023-08-24T04:39:05;12.13;;;10.73;;
7142;SDS011;3613;48.902;9.204;2023-08-24T04:41:33;12.73;;;11.43;;
7142;SDS011;3613;48.902;9.204;2023-08-24T04:44:01;14.10;;;11.10;;
7142;SDS011;3613;48.902;9.204;2023-08-24T04:46:29;14.03;;;10.90;;
7142;SDS011;3613;48.902;9.204;2023-08-24T04:48:57;13.93;;;11.53;;
7142;SDS011;3613;48.902;9.204;2023-08-24T04:51:23;13.53;;;11.03;;
7142;SDS011;3613;48.902;9.204;2023-08-24T04:53:55;12.80;;;11.50;;
7142;SDS011;3613;48.902;9.204;2023-08-24T04:56:20;14.10;;;11.80;;
7142;SDS011;3613;48.902;9.204;2023-08-24T04:58:55;12.50;;;11.30;;
7142;SDS011;3613;48.902;9.204;2023-08-24T05:01:24;13.73;;;11.70;;
7142;SDS011;3613;48.902;9.204;2023-08-24T05:03:50;13.40;;;11.67;;
7142;SDS011;3613;48.902;9.204;2023-08-24T05:06:16;15.43;;;11.60;;
7142;SDS011;3613;48.902;9.204;2023-08-24T05:08:42;13.93;;;11.73;;
7142;SDS011;3613;48.902;9.204;2023-08-24T05:11:16;12.33;;;11.10;;
7142;SDS011;3613;48.902;9.204;2023-08-24T05:13:46;15.77;;;10.53;;
7142;SDS011;3613;48.902;9.204;2023-08-24T05:16:12;11.50;;;10.27;;
7142;SDS011;3613;48.902;9.204;2023-08-24T05:18:38;12.23;;;10.27;;
7142;SDS011;3613;48.902;9.204;2023-08-24T05:21:04;11.67;;;9.83;;
7142;SDS011;3613;48.902;9.204;2023-08-24T05:23:31;13.90;;;9.73;;
7142;SDS011;3613;48.902;9.204;2023-08-24T05:26:00;10.30;;;9.20;;
7142;SDS011;3613;48.902;9.204;2023-08-24T05:28:27;10.27;;;9.23;;
7142;SDS011;3613;48.902;9.204;2023-08-24T05:30:54;11.07;;;8.67;;
7142;SDS011;3613;48.902;9.204;2023-08-24T05:33:21;11.63;;;8.10;;
7142;SDS011;3613;48.902;9.204;2023-08-24T05:35:48;9.43;;;7.70;;
7142;SDS011;3613;48.902;9.204;2023-08-24T05:38:17;9.57;;;7.47;;
7142;SDS011;3613;48.902;9.204;2023-08-24T05:40:43;9.30;;;7.27;;
7142;SDS011;3613;48.902;9.204;2023-08-24T05:43:11;10.10;;;7.50;;
7142;SDS011;3613;48.902;9.204;2023-08-24T05:45:37;9.20;;;7.50;;
7142;SDS011;3613;48.902;9.204;2023-08-24T05:48:06;12.37;;;7.30;;
7142;SDS011;3613;48.902;9.204;2023-08-24T05:50:32;13.47;;;7.20;;
7142;SDS011;3613;48.902;9.204;2023-08-24T05:53:02;8.83;;;7.07;;
7142;SDS011;3613;48.902;9.204;2023-08-24T05:55:30;13.27;;;9.37;;
7142;SDS011;3613;48.902;9.204;2023-08-24T05:57:56;11.80;;;7.43;;
7142;SDS011;3613;48.902;9.204;2023-08-24T06:00:21;10.57;;;6.77;;
7142;SDS011;3613;48.902;9.204;2023-08-24T06:02:49;9.13;;;5.77;;
7142;SDS011;3613;48.902;9.204;2023-08-24T06:05:17;7.63;;;6.67;;
7142;SDS011;3613;48.902;9.204;2023-08-24T06:07:43;6.87;;;5.90;;
7142;SDS011;3613;48.902;9.204;2023-08-24T06:10:10;7.97;;;6.30;;
7142;SDS011;3613;48.902;9.204;2023-08-24T06:12:39;10.57;;;6.83;;
7142;SDS011;3613;48.902;9.204;2023-08-24T06:15:04;10.13;;;6.50;;
7142;SDS011;3613;48.902;9.204;2023-08-24T06:17:35;8.00;;;7.17;;
7142;SDS011;3613;48.902;9.204;2023-08-24T06:20:05;9.07;;;6.83;;
7142;SDS011;3613;48.902;9.204;2023-08-24T06:22:35;8.30;;;6.70;;
7142;SDS011;3613;48.902;9.204;2023-08-24T06:25:00;7.40;;;5.77;;
7142;SDS011;3613;48.902;9.204;2023-08-24T06:27:26;10.17;;;6.90;;
7142;SDS011;3613;48.902;9.204;2023-08-24T06:29:52;10.57;;;6.83;;
7142;SDS011;3613;48.902;9.204;2023-08-24T06:32:22;9.30;;;7.00;;
7142;SDS011;3613;48.902;9.204;2023-08-24T06:34:50;6.73;;;6.00;;
7142;SDS011;3613;48.902;9.204;2023-08-24T06:37:16;8.27;;;5.83;;
7142;SDS011;3613;48.902;9.204;2023-08-24T06:39:44;8.40;;;6.13;;
7142;SDS011;3613;48.902;9.204;2023-08-24T06:42:09;7.47;;;6.30;;
7142;SDS011;3613;48.902;9.204;2023-08-24T06:44:35;6.87;;;5.93;;
7142;SDS011;3613;48.902;9.204;2023-08-24T06:47:01;7.70;;;6.40;;
7142;SDS011;3613;48.902;9.204;2023-08-24T06:49:26;7.40;;;6.63;;
7142;SDS011;3613;48.902;9.204;2023-08-24T06:51:54;8.30;;;6.60;;
7142;SDS011;3613;48.902;9.204;2023-08-24T06:54:22;9.53;;;6.47;;
7142;SDS011;3613;48.902;9.204;2023-08-24T06:56:48;8.23;;;6.20;;
7142;SDS011;3613;48.902;9.204;2023-08-24T06:59:13;13.20;;;6.80;;
7142;SDS011;3613;48.902;9.204;2023-08-24T07:01:40;9.03;;;6.13;;
7142;SDS011;3613;48.902;9.204;2023-08-24T07:04:08;9.20;;;6.43;;
7142;SDS011;3613;48.902;9.204;2023-08-24T07:06:34;9.27;;;6.57;;
7142;SDS011;3613;48.902;9.204;2023-08-24T07:09:00;10.07;;;7.67;;
7142;SDS011;3613;48.902;9.204;2023-08-24T07:11:25;9.33;;;6.10;;
7142;SDS011;3613;48.902;9.204;2023-08-24T07:13:51;6.97;;;6.27;;
7142;SDS011;3613;48.902;9.204;2023-08-24T07:16:18;9.57;;;6.00;;
7142;SDS011;3613;48.902;9.204;2023-08-24T07:18:47;8.23;;;5.70;;
7142;SDS011;3613;48.902;9.204;2023-08-24T07:21:13;7.33;;;5.30;;
7142;SDS011;3613;48.902;9.204;2023-08-24T07:23:42;6.77;;;6.13;;
7142;SDS011;3613;48.902;9.204;2023-08-24T07:26:07;6.83;;;6.10;;
7142;SDS011;3613;48.902;9.204;2023-08-24T07:28:34;9.73;;;6.10;;
7142;SDS011;3613;48.902;9.204;2023-08-24T07:31:06;8.10;;;6.60;;
7142;SDS011;3613;48.902;9.204;2023-08-24T07:33:36;9.17;;;6.50;;
7142;SDS011;3613;48.902;9.204;2023-08-24T07:36:05;9.13;;;6.23;;
7142;SDS011;3613;48.902;9.204;2023-08-24T07:38:31;7.03;;;6.33;;
7142;SDS011;3613;48.902;9.204;2023-08-24T07:40:58;7.80;;;5.67;;
7142;SDS011;3613;48.902;9.204;2023-08-24T07:43:24;6.07;;;5.07;;
7142;SDS011;3613;48.902;9.204;2023-08-24T07:45:50;7.97;;;5.50;;
7142;SDS011;3613;48.902;9.204;2023-08-24T07:48:19;5.37;;;4.87;;
7142;SDS011;3613;48.902;9.204;2023-08-24T07:50:47;12.40;;;5.30;;
7142;SDS011;3613;48.902;9.204;2023-08-24T07:53:12;7.10;;;4.50;;
7142;SDS011;3613;48.902;9.204;2023-08-24T07:55:41;7.80;;;4.93;;
7142;SDS011;3613;48.902;9.204;2023-08-24T07:58:10;6.83;;;4.30;;
7142;SDS011;3613;48.902;9.204;2023-08-24T08:00:36;9.23;;;4.38;;
7142;SDS011;3613;48.902;9.204;2023-08-24T08:03:03;7.43;;;4.40;;
7142;SDS011;3613;48.902;9.204;2023-08-24T08:05:31;4.55;;;4.10;;
7142;SDS011;3613;48.902;9.204;2023-08-24T08:07:59;8.75;;;4.57;;
7142;SDS011;3613;48.902;9.204;2023-08-24T08:10:24;5.10;;;3.65;;
7142;SDS011;3613;48.902;9.204;2023-08-24T08:12:50;4.97;;;3.70;;
7142;SDS011;3613;48.902;9.204;2023-08-24T08:15:15;6.88;;;4.07;;
7142;SDS011;3613;48.902;9.204;2023-08-24T08:17:44;5.57;;;3.90;;
7142;SDS011;3613;48.902;9.204;2023-08-24T08:20:09;5.97;;;3.75;;
7142;SDS011;3613;48.902;9.204;2023-08-24T08:22:36;4.35;;;3.55;;
7142;SDS011;3613;48.902;9.204;2023-08-24T08:25:03;5.55;;;4.20;;
7142;SDS011;3613;48.902;9.204;2023-08-24T08:27:30;4.55;;;3.50;;
7142;SDS011;3613;48.902;9.204;2023-08-24T08:29:58;6.80;;;3.75;;
7142;SDS011;3613;48.902;9.204;2023-08-24T08:32:24;5.38;;;3.45;;
7142;SDS011;3613;48.902;9.204;2023-08-24T08:34:55;4.85;;;3.75;;
7142;SDS011;3613;48.902;9.204;2023-08-24T08:37:25;6.38;;;4.07;;
7142;SDS011;3613;48.902;9.204;2023-08-24T08:39:50;7.05;;;3.90;;
7142;SDS011;3613;48.902;9.204;2023-08-24T08:42:16;5.85;;;4.05;;
7142;SDS011;3613;48.902;9.204;2023-08-24T08:44:45;7.80;;;4.07;;
7142;SDS011;3613;48.902;9.204;2023-08-24T08:47:13;4.60;;;3.97;;
7142;SDS011;3613;48.902;9.204;2023-08-24T08:49:43;6.38;;;4.25;;
7142;SDS011;3613;48.902;9.204;2023-08-24T08:52:10;6.05;;;4.43;;
7142;SDS011;3613;48.902;9.204;2023-08-24T08:54:38;3.97;;;3.58;;
7142;SDS011;3613;48.902;9.204;2023-08-24T08:57:03;8.43;;;4.47;;
7142;SDS011;3613;48.902;9.204;2023-08-24T08:59:29;4.78;;;4.28;;
7142;SDS011;3613;48.902;9.204;2023-08-24T09:01:57;4.75;;;3.58;;
7142;SDS011;3613;48.902;9.204;2023-08-24T09:04:29;8.52;;;3.85;;
7142;SDS011;3613;48.902;9.204;2023-08-24T09:06:56;5.82;;;3.97;;
7142;SDS011;3613;48.902;9.204;2023-08-24T09:09:23;5.90;;;4.25;;
7142;SDS011;3613;48.902;9.204;2023-08-24T09:11:52;7.95;;;4.18;;
7142;SDS011;3613;48.902;9.204;2023-08-24T09:14:22;5.32;;;3.95;;
7142;SDS011;3613;48.902;9.204;2023-08-24T09:16:48;6.28;;;4.05;;
7142;SDS011;3613;48.902;9.204;2023-08-24T09:19:17;4.93;;;3.90;;
7142;SDS011;3613;48.902;9.204;2023-08-24T09:21:42;4.70;;;4.05;;
7142;SDS011;3613;48.902;9.204;2023-08-24T09:24:10;8.38;;;4.47;;
7142;SDS011;3613;48.902;9.204;2023-08-24T09:26:37;5.38;;;4.00;;
7142;SDS011;3613;48.902;9.204;2023-08-24T09:29:15;6.82;;;3.85;;
7142;SDS011;3613;48.902;9.204;2023-08-24T09:31:41;5.90;;;4.05;;
7142;SDS011;3613;48.902;9.204;2023-08-24T09:34:13;7.30;;;4.25;;
7142;SDS011;3613;48.902;9.204;2023-08-24T09:36:38;5.30;;;4.00;;
7142;SDS011;3613;48.902;9.204;2023-08-24T09:39:04;6.03;;;4.38;;
7142;SDS011;3613;48.902;9.204;2023-08-24T09:41:43;5.80;;;4.28;;
7142;SDS011;3613;48.902;9.204;2023-08-24T09:44:09;5.05;;;4.10;;
7142;SDS011;3613;48.902;9.204;2023-08-24T09:46:37;8.00;;;4.22;;
7142;SDS011;3613;48.902;9.204;2023-08-24T09:49:09;7.72;;;4.30;;
7142;SDS011;3613;48.902;9.204;2023-08-24T09:51:37;5.25;;;3.70;;
7142;SDS011;3613;48.902;9.204;2023-08-24T09:54:05;6.45;;;4.60;;
7142;SDS011;3613;48.902;9.204;2023-08-24T09:56:35;6.60;;;4.32;;
7142;SDS011;3613;48.902;9.204;2023-08-24T09:59:11;6.35;;;4.45;;
7142;SDS011;3613;48.902;9.204;2023-08-24T10:01:45;6.18;;;4.25;;
7142;SDS011;3613;48.902;9.204;2023-08-24T10:04:13;9.60;;;4.93;;
7142;SDS011;3613;48.902;9.204;2023-08-24T10:06:42;7.57;;;4.72;;
7142;SDS011;3613;48.902;9.204;2023-08-24T10:09:14;5.30;;;4.53;;
7142;SDS011;3613;48.902;9.204;2023-08-24T10:11:51;7.57;;;4.85;;
7142;SDS011;3613;48.902;9.204;2023-08-24T10:14:31;8.13;;;4.82;;
7142;SDS011;3613;48.902;9.204;2023-08-24T10:17:01;8.38;;;5.45;;
7142;SDS011;3613;48.902;9.204;2023-08-24T10:19:27;8.48;;;5.03;;
7142;SDS011;3613;48.902;9.204;2023-08-24T10:21:54;6.75;;;4.60;;
7142;SDS011;3613;48.902;9.204;2023-08-24T10:24:22;7.45;;;4.70;;
7142;SDS011;3613;48.902;9.204;2023-08-24T10:26:50;7.07;;;4.70;;
7142;SDS011;3613;48.902;9.204;2023-08-24T10:29:17;6.75;;;4.90;;
7142;SDS011;3613;48.902;9.204;2023-08-24T10:31:45;7.32;;;5.00;;
7142;SDS011;3613;48.902;9.204;2023-08-24T10:34:11;7.00;;;5.38;;
7142;SDS011;3613;48.902;9.204;2023-08-24T10:36:40;5.88;;;5.28;;
7142;SDS011;3613;48.902;9.204;2023-08-24T10:39:06;5.80;;;5.22;;
7142;SDS011;3613;48.902;9.204;2023-08-24T10:41:51;8.13;;;5.70;;
7142;SDS011;3613;48.902;9.204;2023-08-24T10:44:20;7.53;;;5.45;;
7142;SDS011;3613;48.902;9.204;2023-08-24T10:49:43;6.90;;;5.30;;
7142;SDS011;3613;48.902;9.204;2023-08-24T10:54:50;7.57;;;5.40;;
7142;SDS011;3613;48.902;9.204;2023-08-24T10:57:26;5.60;;;5.00;;
7142;SDS011;3613;48.902;9.204;2023-08-24T10:59:59;5.13;;;4.72;;
7142;SDS011;3613;48.902;9.204;2023-08-24T11:02:49;7.97;;;5.10;;
7142;SDS011;3613;48.902;9.204;2023-08-24T11:07:50;8.68;;;5.00;;
7142;SDS011;3613;48.902;9.204;2023-08-24T11:15:42;7.95;;;5.40;;
7142;SDS011;3613;48.902;9.204;2023-08-24T11:18:21;7.55;;;5.43;;
7142;SDS011;3613;48.902;9.204;2023-08-24T11:23:30;6.35;;;5.00;;
7142;SDS011;3613;48.902;9.204;2023-08-24T11:25:57;5.68;;;5.18;;
7142;SDS011;3613;48.902;9.204;2023-08-24T11:28:25;6.53;;;5.57;;
7142;SDS011;3613;48.902;9.204;2023-08-24T11:30:55;7.38;;;5.63;;
7142;SDS011;3613;48.902;9.204;2023-08-24T11:33:27;8.18;;;5.40;;
7142;SDS011;3613;48.902;9.204;2023-08-24T11:35:53;7.13;;;5.35;;
7142;SDS011;3613;48.902;9.204;2023-08-24T11:38:21;6.95;;;5.60;;
7142;SDS011;3613;48.902;9.204;2023-08-24T11:40:47;7.88;;;5.47;;
7142;SDS011;3613;48.902;9.204;2023-08-24T11:43:24;7.03;;;5.55;;
7142;SDS011;3613;48.902;9.204;2023-08-24T11:45:53;5.88;;;5.13;;
7142;SDS011;3613;48.902;9.204;2023-08-24T11:48:25;8.40;;;5.40;;
7142;SDS011;3613;48.902;9.204;2023-08-24T11:50:51;5.53;;;5.00;;
7142;SDS011;3613;48.902;9.204;2023-08-24T11:53:19;7.53;;;5.50;;
7142;SDS011;3613;48.902;9.204;2023-08-24T11:55:47;5.88;;;5.30;;
7142;SDS011;3613;48.902;9.204;2023-08-24T11:58:16;5.57;;;4.90;;
7142;SDS011;3613;48.902;9.204;2023-08-24T12:00:42;6.00;;;5.40;;
7142;SDS011;3613;48.902;9.204;2023-08-24T12:03:08;6.38;;;5.60;;
7142;SDS011;3613;48.902;9.204;2023-08-24T12:05:37;6.13;;;5.38;;
7142;SDS011;3613;48.902;9.204;2023-08-24T12:08:03;7.15;;;5.53;;
7142;SDS011;3613;48.902;9.204;2023-08-24T12:10:31;8.10;;;5.57;;
7142;SDS011;3613;48.902;9.204;2023-08-24T12:13:03;6.05;;;5.45;;
7142;SDS011;3613;48.902;9.204;2023-08-24T12:15:31;6.28;;;5.63;;
7142;SDS011;3613;48.902;9.204;2023-08-24T12:18:06;7.68;;;5.75;;
7142;SDS011;3613;48.902;9.204;2023-08-24T12:20:39;7.50;;;5.55;;
7142;SDS011;3613;48.902;9.204;2023-08-24T12:23:08;8.23;;;5.80;;
7142;SDS011;3613;48.902;9.204;2023-08-24T12:25:41;6.18;;;5.60;;
7142;SDS011;3613;48.902;9.204;2023-08-24T12:28:09;6.60;;;5.40;;
7142;SDS011;3613;48.902;9.204;2023-08-24T12:33:20;6.63;;;5.63;;
7142;SDS011;3613;48.902;9.204;2023-08-24T12:35:56;7.32;;;5.90;;
7142;SDS011;3613;48.902;9.204;2023-08-24T12:38:24;5.95;;;5.43;;
7142;SDS011;3613;48.902;9.204;2023-08-24T12:40:54;9.43;;;5.53;;
7142;SDS011;3613;48.902;9.204;2023-08-24T12:43:20;5.82;;;5.15;;
7142;SDS011;3613;48.902;9.204;2023-08-24T12:45:48;6.05;;;5.47;;
7142;SDS011;3613;48.902;9.204;2023-08-24T12:48:16;7.93;;;5.97;;
7142;SDS011;3613;48.902;9.204;2023-08-24T12:50:46;8.00;;;6.07;;
7142;SDS011;3613;48.902;9.204;2023-08-24T12:53:12;7.68;;;5.97;;
7142;SDS011;3613;48.902;9.204;2023-08-24T12:55:39;7.50;;;6.22;;
7142;SDS011;3613;48.902;9.204;2023-08-24T12:58:07;6.63;;;5.78;;
7142;SDS011;3613;48.902;9.204;2023-08-24T13:00:36;8.50;;;5.53;;
7142;SDS011;3613;48.902;9.204;2023-08-24T13:03:02;6.70;;;5.40;;
7142;SDS011;3613;48.902;9.204;2023-08-24T13:05:27;7.63;;;5.55;;
7142;SDS011;3613;48.902;9.204;2023-08-24T13:07:55;7.35;;;5.75;;
7142;SDS011;3613;48.902;9.204;2023-08-24T13:10:21;5.97;;;5.35;;
7142;SDS011;3613;48.902;9.204;2023-08-24T13:12:47;5.90;;;5.40;;
7142;SDS011;3613;48.902;9.204;2023-08-24T13:15:13;8.55;;;6.07;;
7142;SDS011;3613;48.902;9.204;2023-08-24T13:17:40;6.45;;;5.70;;
7142;SDS011;3613;48.902;9.204;2023-08-24T13:20:08;6.32;;;5.72;;
7142;SDS011;3613;48.902;9.204;2023-08-24T13:22:34;11.85;;;6.00;;
7142;SDS011;3613;48.902;9.204;2023-08-24T13:24:59;9.48;;;6.15;;
7142;SDS011;3613;48.902;9.204;2023-08-24T13:27:25;6.88;;;5.57;;
7142;SDS011;3613;48.902;9.204;2023-08-24T13:29:53;9.60;;;6.00;;
7142;SDS011;3613;48.902;9.204;2023-08-24T13:32:21;6.45;;;5.80;;
7142;SDS011;3613;48.902;9.204;2023-08-24T13:34:47;7.72;;;6.03;;
7142;SDS011;3613;48.902;9.204;2023-08-24T13:37:12;8.40;;;6.18;;
7142;SDS011;3613;48.902;9.204;2023-08-24T13:39:38;8.30;;;5.72;;
7142;SDS011;3613;48.902;9.204;2023-08-24T13:42:04;8.60;;;5.90;;
7142;SDS011;3613;48.902;9.204;2023-08-24T13:44:29;10.18;;;6.00;;
7142;SDS011;3613;48.902;9.204;2023-08-24T13:46:55;9.43;;;6.00;;
7142;SDS011;3613;48.902;9.204;2023-08-24T13:49:20;10.38;;;6.32;;
7142;SDS011;3613;48.902;9.204;2023-08-24T13:51:48;10.00;;;6.00;;
7142;SDS011;3613;48.902;9.204;2023-08-24T13:54:17;8.65;;;6.90;;
7142;SDS011;3613;48.902;9.204;2023-08-24T13:56:44;8.02;;;5.95;;
7142;SDS011;3613;48.902;9.204;2023-08-24T13:59:11;7.97;;;5.78;;
7142;SDS011;3613;48.902;9.204;2023-08-24T14:01:37;12.18;;;6.00;;
7142;SDS011;3613;48.902;9.204;2023-08-24T14:04:02;9.73;;;6.10;;
7142;SDS011;3613;48.902;9.204;2023-08-24T14:06:32;7.43;;;6.03;;
7142;SDS011;3613;48.902;9.204;2023-08-24T14:08:59;7.68;;;6.30;;
7142;SDS011;3613;48.902;9.204;2023-08-24T14:11:25;9.90;;;6.25;;
7142;SDS011;3613;48.902;9.204;2023-08-24T14:13:52;7.38;;;6.15;;
7142;SDS011;3613;48.902;9.204;2023-08-24T14:16:18;14.32;;;6.35;;
7142;SDS011;3613;48.902;9.204;2023-08-24T14:18:50;14.13;;;6.38;;
7142;SDS011;3613;48.902;9.204;2023-08-24T14:21:17;10.05;;;6.45;;
7142;SDS011;3613;48.902;9.204;2023-08-24T14:23:45;11.07;;;6.53;;
7142;SDS011;3613;48.902;9.204;2023-08-24T14:26:11;9.15;;;6.10;;
7142;SDS011;3613;48.902;9.204;2023-08-24T14:31:36;10.02;;;5.95;;
7142;SDS011;3613;48.902;9.204;2023-08-24T14:34:01;9.63;;;5.90;;
7142;SDS011;3613;48.902;9.204;2023-08-24T14:36:32;8.10;;;5.45;;
7142;SDS011;3613;48.902;9.204;2023-08-24T14:38:57;7.80;;;6.00;;
7142;SDS011;3613;48.902;9.204;2023-08-24T14:41:26;9.75;;;5.88;;
7142;SDS011;3613;48.902;9.204;2023-08-24T14:43:51;9.18;;;5.80;;
7142;SDS011;3613;48.902;9.204;2023-08-24T14:46:19;7.63;;;5.78;;
7142;SDS011;3613;48.902;9.204;2023-08-24T14:48:47;8.88;;;5.82;;
7142;SDS011;3613;48.902;9.204;2023-08-24T14:51:15;8.98;;;6.30;;
7142;SDS011;3613;48.902;9.204;2023-08-24T14:53:41;7.22;;;6.25;;
7142;SDS011;3613;48.902;9.204;2023-08-24T14:56:06;7.70;;;6.13;;
7142;SDS011;3613;48.902;9.204;2023-08-24T14:58:34;9.98;;;6.25;;
7142;SDS011;3613;48.902;9.204;2023-08-24T15:01:00;8.88;;;6.40;;
7142;SDS011;3613;48.902;9.204;2023-08-24T15:03:26;14.43;;;5.20;;
7142;SDS011;3613;48.902;9.204;2023-08-24T15:05:58;21.13;;;5.60;;
7142;SDS011;3613;48.902;9.204;2023-08-24T15:08:32;12.70;;;6.13;;
7142;SDS011;3613;48.902;9.204;2023-08-24T15:10:59;13.97;;;6.43;;
7142;SDS011;3613;48.902;9.204;2023-08-24T15:13:26;15.70;;;7.77;;
7142;SDS011;3613;48.902;9.204;2023-08-24T15:15:53;19.40;;;10.33;;
7142;SDS011;3613;48.902;9.204;2023-08-24T15:18:19;14.00;;;9.50;;
7142;SDS011;3613;48.902;9.204;2023-08-24T15:20:48;11.67;;;7.03;;
7142;SDS011;3613;48.902;9.204;2023-08-24T15:23:22;11.00;;;6.70;;
7142;SDS011;3613;48.902;9.204;2023-08-24T15:25:54;10.00;;;6.93;;
7142;SDS011;3613;48.902;9.204;2023-08-24T15:28:20;10.40;;;5.70;;
7142;SDS011;3613;48.902;9.204;2023-08-24T15:30:48;7.77;;;5.00;;
7142;SDS011;3613;48.902;9.204;2023-08-24T15:33:15;12.87;;;6.67;;
7142;SDS011;3613;48.902;9.204;2023-08-24T15:35:41;11.30;;;5.93;;
7142;SDS011;3613;48.902;9.204;2023-08-24T15:38:08;8.43;;;5.77;;